sensor_id;sensor_type;location;lat;lon;timestamp;temperature;humidity
3037;DHT22;1528;52.550;13.408;2023-07-02T00:02:13;17.80;77.90
3037;DHT22;1528;52.550;13.408;2023-07-02T00:04:58;17.70;79.10
3037;DHT22;1528;52.550;13.408;2023-07-02T00:07:44;17.80;78.30
3037;DHT22;1528;52.550;13.408;2023-07-02T00:10:29;17.80;78.00
3037;DHT22;1528;52.550;13.408;2023-07-02T00:13:15;17.80;76.50
3037;DHT22;1528;52.550;13.408;2023-07-02T00:16:01;17.80;76.20
3037;DHT22;1528;52.550;13.408;2023-07-02T00:18:48;17.80;76.70
3037;DHT22;1528;52.550;13.408;2023-07-02T00:21:36;17.80;76.20
3037;DHT22;1528;52.550;13.408;2023-07-02T00:24:24;17.90;75.30
3037;DHT22;1528;52.550;13.408;2023-07-02T00:27:10;17.90;75.10
3037;DHT22;1528;52.550;13.408;2023-07-02T00:29:55;17.90;76.10
3037;DHT22;1528;52.550;13.408;2023-07-02T00:32:41;17.90;75.70
3037;DHT22;1528;52.550;13.408;2023-07-02T00:35:28;17.80;76.10
3037;DHT22;1528;52.550;13.408;2023-07-02T00:38:13;17.80;76.70
3037;DHT22;1528;52.550;13.408;2023-07-02T00:40:59;17.80;76.60
3037;DHT22;1528;52.550;13.408;2023-07-02T00:43:44;17.80;75.80
3037;DHT22;1528;52.550;13.408;2023-07-02T00:46:30;17.90;75.00
3037;DHT22;1528;52.550;13.408;2023-07-02T00:49:16;17.90;73.80
3037;DHT22;1528;52.550;13.408;2023-07-02T00:52:03;17.90;74.10
3037;DHT22;1528;52.550;13.408;2023-07-02T00:54:49;17.90;73.70
3037;DHT22;1528;52.550;13.408;2023-07-02T00:57:35;17.90;73.10
3037;DHT22;1528;52.550;13.408;2023-07-02T01:00:21;18.00;72.10
3037;DHT22;1528;52.550;13.408;2023-07-02T01:03:06;18.00;72.00
3037;DHT22;1528;52.550;13.408;2023-07-02T01:05:52;18.00;71.40
3037;DHT22;1528;52.550;13.408;2023-07-02T01:08:39;18.00;70.60
3037;DHT22;1528;52.550;13.408;2023-07-02T01:11:27;18.00;71.30
3037;DHT22;1528;52.550;13.408;2023-07-02T01:14:15;18.10;69.60
3037;DHT22;1528;52.550;13.408;2023-07-02T01:17:03;18.10;69.70
3037;DHT22;1528;52.550;13.408;2023-07-02T01:19:53;18.10;67.80
3037;DHT22;1528;52.550;13.408;2023-07-02T01:22:39;18.00;67.90
3037;DHT22;1528;52.550;13.408;2023-07-02T01:25:25;18.00;67.40
3037;DHT22;1528;52.550;13.408;2023-07-02T01:28:10;17.90;67.40
3037;DHT22;1528;52.550;13.408;2023-07-02T01:30:58;18.00;67.60
3037;DHT22;1528;52.550;13.408;2023-07-02T01:33:43;17.90;66.80
3037;DHT22;1528;52.550;13.408;2023-07-02T01:36:30;17.90;66.90
3037;DHT22;1528;52.550;13.408;2023-07-02T01:39:16;17.90;67.10
3037;DHT22;1528;52.550;13.408;2023-07-02T01:42:09;17.90;67.30
3037;DHT22;1528;52.550;13.408;2023-07-02T01:44:55;17.90;66.80
3037;DHT22;1528;52.550;13.408;2023-07-02T01:47:40;17.90;66.80
3037;DHT22;1528;52.550;13.408;2023-07-02T01:50:26;18.00;66.50
3037;DHT22;1528;52.550;13.408;2023-07-02T01:53:13;17.80;67.40
3037;DHT22;1528;52.550;13.408;2023-07-02T01:55:58;17.70;66.30
3037;DHT22;1528;52.550;13.408;2023-07-02T01:58:45;18.00;65.00
3037;DHT22;1528;52.550;13.408;2023-07-02T02:01:30;17.90;64.90
3037;DHT22;1528;52.550;13.408;2023-07-02T02:04:17;17.90;63.60
3037;DHT22;1528;52.550;13.408;2023-07-02T02:07:03;17.80;64.00
3037;DHT22;1528;52.550;13.408;2023-07-02T02:09:50;17.80;64.40
3037;DHT22;1528;52.550;13.408;2023-07-02T02:12:35;17.80;63.90
3037;DHT22;1528;52.550;13.408;2023-07-02T02:15:21;17.80;64.10
3037;DHT22;1528;52.550;13.408;2023-07-02T02:18:07;17.70;63.10
3037;DHT22;1528;52.550;13.408;2023-07-02T02:20:52;17.70;62.90
3037;DHT22;1528;52.550;13.408;2023-07-02T02:23:38;17.70;62.20
3037;DHT22;1528;52.550;13.408;2023-07-02T02:26:25;17.60;63.50
3037;DHT22;1528;52.550;13.408;2023-07-02T02:29:10;17.60;62.80
3037;DHT22;1528;52.550;13.408;2023-07-02T02:31:56;17.70;62.30
3037;DHT22;1528;52.550;13.408;2023-07-02T02:34:42;17.70;62.60
3037;DHT22;1528;52.550;13.408;2023-07-02T02:37:27;17.70;61.80
3037;DHT22;1528;52.550;13.408;2023-07-02T02:40:14;17.70;62.70
3037;DHT22;1528;52.550;13.408;2023-07-02T02:43:01;17.60;62.20
3037;DHT22;1528;52.550;13.408;2023-07-02T02:45:46;17.60;61.90
3037;DHT22;1528;52.550;13.408;2023-07-02T02:48:32;17.60;62.30
3037;DHT22;1528;52.550;13.408;2023-07-02T02:51:17;17.70;61.00
3037;DHT22;1528;52.550;13.408;2023-07-02T02:54:03;17.70;61.40
3037;DHT22;1528;52.550;13.408;2023-07-02T02:56:49;17.70;61.60
3037;DHT22;1528;52.550;13.408;2023-07-02T02:59:36;17.80;60.90
3037;DHT22;1528;52.550;13.408;2023-07-02T03:02:21;17.70;60.30
3037;DHT22;1528;52.550;13.408;2023-07-02T03:05:08;17.60;60.50
3037;DHT22;1528;52.550;13.408;2023-07-02T03:07:53;17.60;60.40
3037;DHT22;1528;52.550;13.408;2023-07-02T03:10:39;17.50;61.20
3037;DHT22;1528;52.550;13.408;2023-07-02T03:13:25;17.50;61.20
3037;DHT22;1528;52.550;13.408;2023-07-02T03:16:12;17.60;60.90
3037;DHT22;1528;52.550;13.408;2023-07-02T03:18:57;17.40;61.70
3037;DHT22;1528;52.550;13.408;2023-07-02T03:21:43;17.40;61.80
3037;DHT22;1528;52.550;13.408;2023-07-02T03:24:29;17.50;61.70
3037;DHT22;1528;52.550;13.408;2023-07-02T03:27:14;17.50;60.50
3037;DHT22;1528;52.550;13.408;2023-07-02T03:30:00;17.50;61.40
3037;DHT22;1528;52.550;13.408;2023-07-02T03:32:47;17.50;60.70
3037;DHT22;1528;52.550;13.408;2023-07-02T03:35:32;17.50;59.90
3037;DHT22;1528;52.550;13.408;2023-07-02T03:38:18;17.50;60.00
3037;DHT22;1528;52.550;13.408;2023-07-02T03:41:04;17.50;60.20
3037;DHT22;1528;52.550;13.408;2023-07-02T03:43:49;17.50;60.10
3037;DHT22;1528;52.550;13.408;2023-07-02T03:46:35;17.40;60.00
3037;DHT22;1528;52.550;13.408;2023-07-02T03:49:22;17.40;59.40
3037;DHT22;1528;52.550;13.408;2023-07-02T03:52:07;17.50;59.60
3037;DHT22;1528;52.550;13.408;2023-07-02T03:54:53;17.50;58.60
3037;DHT22;1528;52.550;13.408;2023-07-02T03:57:39;17.50;58.90
3037;DHT22;1528;52.550;13.408;2023-07-02T04:00:24;17.50;58.90
3037;DHT22;1528;52.550;13.408;2023-07-02T04:03:10;17.40;58.90
3037;DHT22;1528;52.550;13.408;2023-07-02T04:05:57;17.40;58.40
3037;DHT22;1528;52.550;13.408;2023-07-02T04:08:43;17.40;57.70
3037;DHT22;1528;52.550;13.408;2023-07-02T04:11:28;17.60;57.50
3037;DHT22;1528;52.550;13.408;2023-07-02T04:14:14;17.40;56.70
3037;DHT22;1528;52.550;13.408;2023-07-02T04:17:01;17.40;57.10
3037;DHT22;1528;52.550;13.408;2023-07-02T04:19:47;17.40;56.60
3037;DHT22;1528;52.550;13.408;2023-07-02T04:22:34;17.50;56.30
3037;DHT22;1528;52.550;13.408;2023-07-02T04:25:20;17.50;55.40
3037;DHT22;1528;52.550;13.408;2023-07-02T04:28:05;17.40;55.60
3037;DHT22;1528;52.550;13.408;2023-07-02T04:30:51;17.50;55.30
3037;DHT22;1528;52.550;13.408;2023-07-02T04:33:37;17.40;54.80
3037;DHT22;1528;52.550;13.408;2023-07-02T04:36:23;17.50;54.50
3037;DHT22;1528;52.550;13.408;2023-07-02T04:39:10;17.40;54.60
3037;DHT22;1528;52.550;13.408;2023-07-02T04:41:56;17.60;54.00
3037;DHT22;1528;52.550;13.408;2023-07-02T04:44:41;17.70;53.70
3037;DHT22;1528;52.550;13.408;2023-07-02T04:47:28;17.60;53.80
3037;DHT22;1528;52.550;13.408;2023-07-02T04:50:13;17.70;53.90
3037;DHT22;1528;52.550;13.408;2023-07-02T04:52:59;17.70;52.60
3037;DHT22;1528;52.550;13.408;2023-07-02T04:55:46;17.80;52.10
3037;DHT22;1528;52.550;13.408;2023-07-02T04:58:31;17.70;52.20
3037;DHT22;1528;52.550;13.408;2023-07-02T05:01:17;17.70;51.70
3037;DHT22;1528;52.550;13.408;2023-07-02T05:04:04;17.70;51.60
3037;DHT22;1528;52.550;13.408;2023-07-02T05:06:50;17.70;52.10
3037;DHT22;1528;52.550;13.408;2023-07-02T05:09:36;17.90;51.30
3037;DHT22;1528;52.550;13.408;2023-07-02T05:12:23;17.90;51.30
3037;DHT22;1528;52.550;13.408;2023-07-02T05:15:09;18.00;51.50
3037;DHT22;1528;52.550;13.408;2023-07-02T05:17:56;18.10;50.40
3037;DHT22;1528;52.550;13.408;2023-07-02T05:20:41;18.10;49.80
3037;DHT22;1528;52.550;13.408;2023-07-02T05:23:27;18.10;48.80
3037;DHT22;1528;52.550;13.408;2023-07-02T05:26:13;18.20;48.80
3037;DHT22;1528;52.550;13.408;2023-07-02T05:29:00;18.20;48.80
3037;DHT22;1528;52.550;13.408;2023-07-02T05:31:46;18.10;48.30
3037;DHT22;1528;52.550;13.408;2023-07-02T05:34:32;18.20;47.10
3037;DHT22;1528;52.550;13.408;2023-07-02T05:37:18;18.00;47.90
3037;DHT22;1528;52.550;13.408;2023-07-02T05:40:04;18.10;47.00
3037;DHT22;1528;52.550;13.408;2023-07-02T05:42:50;18.20;46.60
3037;DHT22;1528;52.550;13.408;2023-07-02T05:45:37;18.30;45.60
3037;DHT22;1528;52.550;13.408;2023-07-02T05:48:23;18.40;45.10
3037;DHT22;1528;52.550;13.408;2023-07-02T05:51:09;18.30;45.30
3037;DHT22;1528;52.550;13.408;2023-07-02T05:53:54;18.40;45.30
3037;DHT22;1528;52.550;13.408;2023-07-02T05:56:40;18.30;45.00
3037;DHT22;1528;52.550;13.408;2023-07-02T05:59:26;18.30;45.20
3037;DHT22;1528;52.550;13.408;2023-07-02T06:02:12;18.40;44.70
3037;DHT22;1528;52.550;13.408;2023-07-02T06:04:58;18.60;44.10
3037;DHT22;1528;52.550;13.408;2023-07-02T06:07:45;18.70;43.60
3037;DHT22;1528;52.550;13.408;2023-07-02T06:10:31;18.90;41.80
3037;DHT22;1528;52.550;13.408;2023-07-02T06:13:17;19.10;41.70
3037;DHT22;1528;52.550;13.408;2023-07-02T06:16:03;19.30;41.00
3037;DHT22;1528;52.550;13.408;2023-07-02T06:18:50;19.50;40.00
3037;DHT22;1528;52.550;13.408;2023-07-02T06:21:36;19.60;38.20
3037;DHT22;1528;52.550;13.408;2023-07-02T06:24:21;19.70;37.90
3037;DHT22;1528;52.550;13.408;2023-07-02T06:27:07;19.60;36.00
3037;DHT22;1528;52.550;13.408;2023-07-02T06:29:53;19.60;36.30
3037;DHT22;1528;52.550;13.408;2023-07-02T06:32:38;19.60;36.10
3037;DHT22;1528;52.550;13.408;2023-07-02T06:35:26;19.60;35.60
3037;DHT22;1528;52.550;13.408;2023-07-02T06:38:11;19.60;35.70
3037;DHT22;1528;52.550;13.408;2023-07-02T06:40:57;19.70;35.00
3037;DHT22;1528;52.550;13.408;2023-07-02T06:43:43;19.70;34.60
3037;DHT22;1528;52.550;13.408;2023-07-02T06:46:28;19.60;33.80
3037;DHT22;1528;52.550;13.408;2023-07-02T06:49:14;19.70;33.50
3037;DHT22;1528;52.550;13.408;2023-07-02T06:52:01;19.70;32.70
3037;DHT22;1528;52.550;13.408;2023-07-02T06:54:47;19.70;32.60
3037;DHT22;1528;52.550;13.408;2023-07-02T06:57:32;19.90;32.00
3037;DHT22;1528;52.550;13.408;2023-07-02T07:00:18;20.10;31.70
3037;DHT22;1528;52.550;13.408;2023-07-02T07:03:04;20.30;30.90
3037;DHT22;1528;52.550;13.408;2023-07-02T07:05:49;20.40;30.90
3037;DHT22;1528;52.550;13.408;2023-07-02T07:08:38;20.50;30.00
3037;DHT22;1528;52.550;13.408;2023-07-02T07:11:24;20.50;30.00
3037;DHT22;1528;52.550;13.408;2023-07-02T07:14:09;20.60;29.00
3037;DHT22;1528;52.550;13.408;2023-07-02T07:16:55;20.50;29.50
3037;DHT22;1528;52.550;13.408;2023-07-02T07:19:41;20.50;28.20
3037;DHT22;1528;52.550;13.408;2023-07-02T07:22:26;20.50;28.60
3037;DHT22;1528;52.550;13.408;2023-07-02T07:25:14;20.40;28.80
3037;DHT22;1528;52.550;13.408;2023-07-02T07:28:02;20.50;29.40
3037;DHT22;1528;52.550;13.408;2023-07-02T07:30:48;20.40;28.80
3037;DHT22;1528;52.550;13.408;2023-07-02T07:33:34;20.30;29.20
3037;DHT22;1528;52.550;13.408;2023-07-02T07:36:19;20.20;29.30
3037;DHT22;1528;52.550;13.408;2023-07-02T07:39:05;20.40;28.80
3037;DHT22;1528;52.550;13.408;2023-07-02T07:41:52;20.50;28.60
3037;DHT22;1528;52.550;13.408;2023-07-02T07:44:38;20.60;27.80
3037;DHT22;1528;52.550;13.408;2023-07-02T07:47:24;20.60;28.00
3037;DHT22;1528;52.550;13.408;2023-07-02T07:50:10;20.40;28.60
3037;DHT22;1528;52.550;13.408;2023-07-02T07:52:55;20.40;28.90
3037;DHT22;1528;52.550;13.408;2023-07-02T07:55:41;20.40;29.00
3037;DHT22;1528;52.550;13.408;2023-07-02T07:58:28;20.30;28.00
3037;DHT22;1528;52.550;13.408;2023-07-02T08:01:16;20.30;28.60
3037;DHT22;1528;52.550;13.408;2023-07-02T08:04:02;20.10;28.90
3037;DHT22;1528;52.550;13.408;2023-07-02T08:06:48;20.00;29.40
3037;DHT22;1528;52.550;13.408;2023-07-02T08:09:34;20.00;29.50
3037;DHT22;1528;52.550;13.408;2023-07-02T08:12:19;19.90;29.80
3037;DHT22;1528;52.550;13.408;2023-07-02T08:15:07;19.90;30.00
3037;DHT22;1528;52.550;13.408;2023-07-02T08:17:53;19.80;30.20
3037;DHT22;1528;52.550;13.408;2023-07-02T08:20:41;19.80;30.50
3037;DHT22;1528;52.550;13.408;2023-07-02T08:23:27;19.80;30.50
3037;DHT22;1528;52.550;13.408;2023-07-02T08:26:13;19.60;30.40
3037;DHT22;1528;52.550;13.408;2023-07-02T08:28:58;19.50;30.80
3037;DHT22;1528;52.550;13.408;2023-07-02T08:31:45;19.60;30.40
3037;DHT22;1528;52.550;13.408;2023-07-02T08:34:31;19.70;30.70
3037;DHT22;1528;52.550;13.408;2023-07-02T08:37:17;19.80;30.00
3037;DHT22;1528;52.550;13.408;2023-07-02T08:40:04;19.90;29.70
3037;DHT22;1528;52.550;13.408;2023-07-02T08:42:51;20.10;29.00
3037;DHT22;1528;52.550;13.408;2023-07-02T08:45:40;20.20;29.10
3037;DHT22;1528;52.550;13.408;2023-07-02T08:48:28;20.20;29.10
3037;DHT22;1528;52.550;13.408;2023-07-02T08:51:16;20.20;28.70
3037;DHT22;1528;52.550;13.408;2023-07-02T08:54:02;20.30;28.40
3037;DHT22;1528;52.550;13.408;2023-07-02T08:56:48;20.20;28.50
3037;DHT22;1528;52.550;13.408;2023-07-02T08:59:36;20.40;27.80
3037;DHT22;1528;52.550;13.408;2023-07-02T09:02:31;20.40;26.60
3037;DHT22;1528;52.550;13.408;2023-07-02T09:05:18;20.40;25.60
3037;DHT22;1528;52.550;13.408;2023-07-02T09:08:04;20.60;26.20
3037;DHT22;1528;52.550;13.408;2023-07-02T09:10:50;20.50;24.50
3037;DHT22;1528;52.550;13.408;2023-07-02T09:13:43;20.50;24.40
3037;DHT22;1528;52.550;13.408;2023-07-02T09:16:30;20.60;23.70
3037;DHT22;1528;52.550;13.408;2023-07-02T09:19:16;20.90;23.30
3037;DHT22;1528;52.550;13.408;2023-07-02T09:22:04;21.10;23.20
3037;DHT22;1528;52.550;13.408;2023-07-02T09:24:53;21.30;22.50
3037;DHT22;1528;52.550;13.408;2023-07-02T09:27:40;21.30;21.00
3037;DHT22;1528;52.550;13.408;2023-07-02T09:30:26;21.20;21.20
3037;DHT22;1528;52.550;13.408;2023-07-02T09:33:12;21.10;21.80
3037;DHT22;1528;52.550;13.408;2023-07-02T09:36:01;21.20;21.90
3037;DHT22;1528;52.550;13.408;2023-07-02T09:38:48;21.20;21.40
3037;DHT22;1528;52.550;13.408;2023-07-02T09:41:34;21.30;20.70
3037;DHT22;1528;52.550;13.408;2023-07-02T09:44:20;21.20;21.40
3037;DHT22;1528;52.550;13.408;2023-07-02T09:47:07;21.20;21.70
3037;DHT22;1528;52.550;13.408;2023-07-02T09:49:55;21.30;21.70
3037;DHT22;1528;52.550;13.408;2023-07-02T09:52:40;21.30;21.80
3037;DHT22;1528;52.550;13.408;2023-07-02T09:55:28;21.20;21.90
3037;DHT22;1528;52.550;13.408;2023-07-02T09:58:14;21.40;20.80
3037;DHT22;1528;52.550;13.408;2023-07-02T10:01:00;21.40;19.20
3037;DHT22;1528;52.550;13.408;2023-07-02T10:03:45;21.40;19.90
3037;DHT22;1528;52.550;13.408;2023-07-02T10:06:31;21.50;20.50
3037;DHT22;1528;52.550;13.408;2023-07-02T10:09:17;21.50;19.70
3037;DHT22;1528;52.550;13.408;2023-07-02T10:12:15;21.60;19.80
3037;DHT22;1528;52.550;13.408;2023-07-02T10:15:01;21.60;19.50
3037;DHT22;1528;52.550;13.408;2023-07-02T10:17:54;21.60;20.10
3037;DHT22;1528;52.550;13.408;2023-07-02T10:20:41;21.70;20.00
3037;DHT22;1528;52.550;13.408;2023-07-02T10:23:33;21.80;19.60
3037;DHT22;1528;52.550;13.408;2023-07-02T10:26:19;21.60;19.60
3037;DHT22;1528;52.550;13.408;2023-07-02T10:29:07;21.70;20.00
3037;DHT22;1528;52.550;13.408;2023-07-02T10:31:54;21.70;20.40
3037;DHT22;1528;52.550;13.408;2023-07-02T10:34:40;21.90;19.70
3037;DHT22;1528;52.550;13.408;2023-07-02T10:37:26;21.80;20.00
3037;DHT22;1528;52.550;13.408;2023-07-02T10:40:12;21.90;20.10
3037;DHT22;1528;52.550;13.408;2023-07-02T10:42:58;22.20;20.10
3037;DHT22;1528;52.550;13.408;2023-07-02T10:45:45;22.40;19.30
3037;DHT22;1528;52.550;13.408;2023-07-02T10:48:31;22.20;18.90
3037;DHT22;1528;52.550;13.408;2023-07-02T10:51:16;22.30;20.00
3037;DHT22;1528;52.550;13.408;2023-07-02T10:54:03;22.10;19.20
3037;DHT22;1528;52.550;13.408;2023-07-02T10:56:49;21.80;18.60
3037;DHT22;1528;52.550;13.408;2023-07-02T10:59:35;22.30;18.50
3037;DHT22;1528;52.550;13.408;2023-07-02T11:02:22;22.50;18.50
3037;DHT22;1528;52.550;13.408;2023-07-02T11:05:08;22.30;19.20
3037;DHT22;1528;52.550;13.408;2023-07-02T11:08:08;22.30;19.00
3037;DHT22;1528;52.550;13.408;2023-07-02T11:11:05;22.00;19.00
3037;DHT22;1528;52.550;13.408;2023-07-02T11:13:52;22.00;18.00
3037;DHT22;1528;52.550;13.408;2023-07-02T11:16:39;22.00;17.80
3037;DHT22;1528;52.550;13.408;2023-07-02T11:19:26;21.90;18.10
3037;DHT22;1528;52.550;13.408;2023-07-02T11:22:11;22.10;18.20
3037;DHT22;1528;52.550;13.408;2023-07-02T11:24:56;22.30;18.50
3037;DHT22;1528;52.550;13.408;2023-07-02T11:27:47;22.40;17.30
3037;DHT22;1528;52.550;13.408;2023-07-02T11:30:33;23.00;16.50
3037;DHT22;1528;52.550;13.408;2023-07-02T11:33:21;23.80;15.30
3037;DHT22;1528;52.550;13.408;2023-07-02T11:36:22;24.10;14.20
3037;DHT22;1528;52.550;13.408;2023-07-02T11:39:09;24.30;10.90
3037;DHT22;1528;52.550;13.408;2023-07-02T11:41:56;24.00;10.30
3037;DHT22;1528;52.550;13.408;2023-07-02T11:44:42;24.00;10.20
3037;DHT22;1528;52.550;13.408;2023-07-02T11:47:28;24.30;10.00
3037;DHT22;1528;52.550;13.408;2023-07-02T11:50:13;24.60;10.30
3037;DHT22;1528;52.550;13.408;2023-07-02T11:53:00;24.20;10.10
3037;DHT22;1528;52.550;13.408;2023-07-02T11:55:47;24.70;10.20
3037;DHT22;1528;52.550;13.408;2023-07-02T11:58:33;25.20;8.70
3037;DHT22;1528;52.550;13.408;2023-07-02T12:01:18;25.50;7.90
3037;DHT22;1528;52.550;13.408;2023-07-02T12:04:04;26.00;6.50
3037;DHT22;1528;52.550;13.408;2023-07-02T12:06:51;25.10;6.00
3037;DHT22;1528;52.550;13.408;2023-07-02T12:09:47;26.70;5.00
3037;DHT22;1528;52.550;13.408;2023-07-02T12:12:33;30.50;1.00
3037;DHT22;1528;52.550;13.408;2023-07-02T12:15:19;32.30;1.00
3037;DHT22;1528;52.550;13.408;2023-07-02T12:18:05;32.10;1.00
3037;DHT22;1528;52.550;13.408;2023-07-02T12:20:50;32.60;1.00
3037;DHT22;1528;52.550;13.408;2023-07-02T12:23:37;34.00;1.00
3037;DHT22;1528;52.550;13.408;2023-07-02T12:26:25;35.00;1.00
3037;DHT22;1528;52.550;13.408;2023-07-02T12:29:13;35.50;1.00
3037;DHT22;1528;52.550;13.408;2023-07-02T12:31:58;33.00;1.00
3037;DHT22;1528;52.550;13.408;2023-07-02T12:34:45;33.50;1.00
3037;DHT22;1528;52.550;13.408;2023-07-02T12:37:33;32.30;1.00
3037;DHT22;1528;52.550;13.408;2023-07-02T12:40:19;29.70;1.00
3037;DHT22;1528;52.550;13.408;2023-07-02T12:43:06;32.20;1.00
3037;DHT22;1528;52.550;13.408;2023-07-02T12:45:53;34.60;1.00
3037;DHT22;1528;52.550;13.408;2023-07-02T12:48:39;34.30;1.00
3037;DHT22;1528;52.550;13.408;2023-07-02T12:51:25;34.60;1.00
3037;DHT22;1528;52.550;13.408;2023-07-02T12:54:10;33.80;1.00
3037;DHT22;1528;52.550;13.408;2023-07-02T12:56:58;32.30;1.00
3037;DHT22;1528;52.550;13.408;2023-07-02T12:59:45;29.90;1.00
3037;DHT22;1528;52.550;13.408;2023-07-02T13:02:35;27.60;1.00
3037;DHT22;1528;52.550;13.408;2023-07-02T13:05:21;26.30;1.00
3037;DHT22;1528;52.550;13.408;2023-07-02T13:08:06;25.20;3.50
3037;DHT22;1528;52.550;13.408;2023-07-02T13:10:52;24.80;4.30
3037;DHT22;1528;52.550;13.408;2023-07-02T13:13:41;27.50;1.00
3037;DHT22;1528;52.550;13.408;2023-07-02T13:16:29;30.20;1.00
3037;DHT22;1528;52.550;13.408;2023-07-02T13:19:14;33.30;1.00
3037;DHT22;1528;52.550;13.408;2023-07-02T13:22:01;36.20;1.00
3037;DHT22;1528;52.550;13.408;2023-07-02T13:24:47;37.60;1.00
3037;DHT22;1528;52.550;13.408;2023-07-02T13:27:32;39.60;1.00
3037;DHT22;1528;52.550;13.408;2023-07-02T13:30:18;39.80;1.00
3037;DHT22;1528;52.550;13.408;2023-07-02T13:33:06;40.00;1.00
3037;DHT22;1528;52.550;13.408;2023-07-02T13:35:52;39.40;1.00
3037;DHT22;1528;52.550;13.408;2023-07-02T13:38:37;38.50;1.00
3037;DHT22;1528;52.550;13.408;2023-07-02T13:41:23;36.40;1.00
3037;DHT22;1528;52.550;13.408;2023-07-02T13:44:09;35.90;1.00
3037;DHT22;1528;52.550;13.408;2023-07-02T13:46:55;38.10;1.00
3037;DHT22;1528;52.550;13.408;2023-07-02T13:49:42;37.70;1.00
3037;DHT22;1528;52.550;13.408;2023-07-02T13:52:29;34.20;1.00
3037;DHT22;1528;52.550;13.408;2023-07-02T13:55:20;33.10;1.00
3037;DHT22;1528;52.550;13.408;2023-07-02T13:58:11;33.50;1.00
3037;DHT22;1528;52.550;13.408;2023-07-02T14:00:58;31.50;1.00
3037;DHT22;1528;52.550;13.408;2023-07-02T14:03:44;29.90;1.00
3037;DHT22;1528;52.550;13.408;2023-07-02T14:06:30;32.00;1.00
3037;DHT22;1528;52.550;13.408;2023-07-02T14:09:16;34.60;1.00
3037;DHT22;1528;52.550;13.408;2023-07-02T14:12:02;33.90;1.00
3037;DHT22;1528;52.550;13.408;2023-07-02T14:14:48;33.80;1.00
3037;DHT22;1528;52.550;13.408;2023-07-02T14:17:35;35.30;1.00
3037;DHT22;1528;52.550;13.408;2023-07-02T14:20:21;35.90;1.00
3037;DHT22;1528;52.550;13.408;2023-07-02T14:23:06;37.30;1.00
3037;DHT22;1528;52.550;13.408;2023-07-02T14:25:52;40.70;1.00
3037;DHT22;1528;52.550;13.408;2023-07-02T14:28:38;43.70;1.00
3037;DHT22;1528;52.550;13.408;2023-07-02T14:31:23;42.40;1.00
3037;DHT22;1528;52.550;13.408;2023-07-02T14:34:11;41.60;1.00
3037;DHT22;1528;52.550;13.408;2023-07-02T14:36:58;41.80;1.00
3037;DHT22;1528;52.550;13.408;2023-07-02T14:39:43;40.60;1.00
3037;DHT22;1528;52.550;13.408;2023-07-02T14:42:29;40.00;1.00
3037;DHT22;1528;52.550;13.408;2023-07-02T14:45:16;36.20;1.00
3037;DHT22;1528;52.550;13.408;2023-07-02T14:48:01;34.60;1.00
3037;DHT22;1528;52.550;13.408;2023-07-02T14:50:51;34.80;1.00
3037;DHT22;1528;52.550;13.408;2023-07-02T14:53:37;35.10;1.00
3037;DHT22;1528;52.550;13.408;2023-07-02T14:56:23;33.40;1.00
3037;DHT22;1528;52.550;13.408;2023-07-02T14:59:08;31.50;1.00
3037;DHT22;1528;52.550;13.408;2023-07-02T15:01:54;30.00;1.00
3037;DHT22;1528;52.550;13.408;2023-07-02T15:04:46;29.30;1.00
3037;DHT22;1528;52.550;13.408;2023-07-02T15:07:42;28.80;1.00
3037;DHT22;1528;52.550;13.408;2023-07-02T15:10:31;27.30;1.00
3037;DHT22;1528;52.550;13.408;2023-07-02T15:13:17;27.30;1.00
3037;DHT22;1528;52.550;13.408;2023-07-02T15:16:03;26.80;1.00
3037;DHT22;1528;52.550;13.408;2023-07-02T15:18:49;26.40;1.00
3037;DHT22;1528;52.550;13.408;2023-07-02T15:21:35;25.90;1.00
3037;DHT22;1528;52.550;13.408;2023-07-02T15:24:22;25.80;1.00
3037;DHT22;1528;52.550;13.408;2023-07-02T15:27:08;26.20;1.00
3037;DHT22;1528;52.550;13.408;2023-07-02T15:29:54;25.90;1.00
3037;DHT22;1528;52.550;13.408;2023-07-02T15:32:41;25.70;1.00
3037;DHT22;1528;52.550;13.408;2023-07-02T15:35:27;25.70;1.00
3037;DHT22;1528;52.550;13.408;2023-07-02T15:38:13;25.10;1.00
3037;DHT22;1528;52.550;13.408;2023-07-02T15:41:15;25.00;1.00
3037;DHT22;1528;52.550;13.408;2023-07-02T15:44:01;25.30;1.00
3037;DHT22;1528;52.550;13.408;2023-07-02T15:46:48;25.00;1.00
3037;DHT22;1528;52.550;13.408;2023-07-02T15:49:35;24.90;1.00
3037;DHT22;1528;52.550;13.408;2023-07-02T15:52:21;24.80;1.00
3037;DHT22;1528;52.550;13.408;2023-07-02T15:55:07;24.80;1.00
3037;DHT22;1528;52.550;13.408;2023-07-02T15:57:54;24.40;1.00
3037;DHT22;1528;52.550;13.408;2023-07-02T16:00:40;24.10;1.00
3037;DHT22;1528;52.550;13.408;2023-07-02T16:03:26;23.70;2.00
3037;DHT22;1528;52.550;13.408;2023-07-02T16:06:13;23.60;2.20
3037;DHT22;1528;52.550;13.408;2023-07-02T16:08:59;23.80;1.60
3037;DHT22;1528;52.550;13.408;2023-07-02T16:11:45;23.70;1.00
3037;DHT22;1528;52.550;13.408;2023-07-02T16:14:33;23.70;1.20
3037;DHT22;1528;52.550;13.408;2023-07-02T16:17:19;23.50;1.30
3037;DHT22;1528;52.550;13.408;2023-07-02T16:20:09;23.00;1.90
3037;DHT22;1528;52.550;13.408;2023-07-02T16:22:55;22.80;2.60
3037;DHT22;1528;52.550;13.408;2023-07-02T16:25:52;22.70;3.40
3037;DHT22;1528;52.550;13.408;2023-07-02T16:28:38;22.70;3.60
3037;DHT22;1528;52.550;13.408;2023-07-02T16:31:25;22.80;3.30
3037;DHT22;1528;52.550;13.408;2023-07-02T16:34:12;23.00;2.60
3037;DHT22;1528;52.550;13.408;2023-07-02T16:36:59;23.00;2.80
3037;DHT22;1528;52.550;13.408;2023-07-02T16:39:44;23.10;2.40
3037;DHT22;1528;52.550;13.408;2023-07-02T16:42:30;22.90;3.40
3037;DHT22;1528;52.550;13.408;2023-07-02T16:45:16;22.70;3.30
3037;DHT22;1528;52.550;13.408;2023-07-02T16:48:04;22.90;3.20
3037;DHT22;1528;52.550;13.408;2023-07-02T16:50:56;22.90;3.50
3037;DHT22;1528;52.550;13.408;2023-07-02T16:53:42;22.70;4.10
3037;DHT22;1528;52.550;13.408;2023-07-02T16:56:28;22.80;3.70
3037;DHT22;1528;52.550;13.408;2023-07-02T16:59:14;22.80;3.80
3037;DHT22;1528;52.550;13.408;2023-07-02T17:02:01;22.90;3.80
3037;DHT22;1528;52.550;13.408;2023-07-02T17:04:48;22.60;4.20
3037;DHT22;1528;52.550;13.408;2023-07-02T17:07:34;22.40;4.90
3037;DHT22;1528;52.550;13.408;2023-07-02T17:10:19;22.50;5.00
3037;DHT22;1528;52.550;13.408;2023-07-02T17:13:05;22.60;4.70
3037;DHT22;1528;52.550;13.408;2023-07-02T17:15:51;22.70;4.60
3037;DHT22;1528;52.550;13.408;2023-07-02T17:18:36;22.50;5.00
3037;DHT22;1528;52.550;13.408;2023-07-02T17:21:23;22.60;5.40
3037;DHT22;1528;52.550;13.408;2023-07-02T17:24:09;22.60;5.30
3037;DHT22;1528;52.550;13.408;2023-07-02T17:26:56;22.60;5.30
3037;DHT22;1528;52.550;13.408;2023-07-02T17:29:43;22.50;5.20
3037;DHT22;1528;52.550;13.408;2023-07-02T17:32:33;22.50;5.00
3037;DHT22;1528;52.550;13.408;2023-07-02T17:35:19;22.40;4.70
3037;DHT22;1528;52.550;13.408;2023-07-02T17:38:06;22.40;4.70
3037;DHT22;1528;52.550;13.408;2023-07-02T17:40:51;22.30;4.70
3037;DHT22;1528;52.550;13.408;2023-07-02T17:43:37;22.20;4.70
3037;DHT22;1528;52.550;13.408;2023-07-02T17:46:23;22.20;4.90
3037;DHT22;1528;52.550;13.408;2023-07-02T17:49:09;22.30;4.80
3037;DHT22;1528;52.550;13.408;2023-07-02T17:51:55;22.30;4.60
3037;DHT22;1528;52.550;13.408;2023-07-02T17:54:44;22.40;4.80
3037;DHT22;1528;52.550;13.408;2023-07-02T17:57:30;22.30;4.60